createdAt,value
2019-05-20T07:19:50.245Z,22.65
2019-05-20T07:20:50.238Z,22.76
2019-05-20T07:22:55.239Z,22.91
2019-05-20T07:23:43.333Z,22.99
2019-05-20T07:24:43.372Z,23.16
2019-05-20T07:29:08.460Z,23.52
2019-05-20T07:30:08.464Z,23.69
2019-05-20T07:31:08.495Z,23.71
2019-05-20T07:32:08.509Z,23.84
2019-05-20T07:33:08.596Z,23.85
2019-05-20T07:34:08.560Z,23.94
2019-05-20T07:35:08.584Z,23.99
2019-05-20T07:36:10.116Z,24.09
2019-05-20T07:37:08.632Z,24.21
2019-05-20T07:38:08.657Z,24.28
2019-05-20T07:39:08.681Z,24.26
2019-05-20T07:40:08.705Z,24.43
2019-05-20T07:41:08.755Z,24.41
2019-05-20T07:42:08.760Z,24.50
2019-05-20T07:43:08.782Z,24.56
2019-05-20T07:44:08.807Z,24.62
2019-05-20T07:45:08.834Z,24.58
2019-05-20T07:46:08.868Z,24.75
2019-05-20T07:47:10.902Z,24.81
2019-05-20T07:48:08.952Z,24.85
2019-05-20T07:49:08.949Z,24.94
2019-05-20T07:50:08.969Z,24.88
2019-05-20T07:51:08.993Z,25.04
2019-05-20T07:52:09.128Z,25.01
2019-05-20T07:53:09.046Z,25.11
2019-05-20T07:54:09.110Z,25.07
2019-05-20T07:55:09.097Z,25.11
2019-05-20T07:56:09.174Z,25.14
2019-05-20T07:57:09.149Z,25.18
2019-05-20T07:58:09.187Z,25.21
2019-05-20T07:59:09.199Z,25.18
2019-05-20T08:00:09.234Z,25.19
2019-05-20T08:01:09.257Z,25.26
2019-05-20T08:02:09.286Z,25.37
2019-05-20T08:03:09.307Z,25.37
2019-05-20T08:04:09.408Z,25.41
2019-05-20T08:05:09.447Z,25.33
2019-05-20T08:06:09.387Z,25.41
2019-05-20T08:07:26.809Z,25.44
2019-05-20T08:08:09.443Z,25.46
2019-05-20T08:09:09.473Z,25.43
2019-05-20T08:10:09.565Z,25.43
2019-05-20T08:11:09.524Z,25.49
2019-05-20T08:12:09.563Z,25.49
2019-05-20T08:13:09.630Z,25.49
2019-05-20T08:14:09.605Z,25.54
2019-05-20T08:15:09.697Z,25.67
2019-05-20T08:16:09.713Z,25.66
2019-05-20T08:17:09.700Z,25.67
2019-05-20T08:18:09.729Z,25.68
2019-05-20T08:19:09.782Z,25.66
2019-05-20T08:20:09.768Z,25.66
2019-05-20T08:21:09.794Z,25.73
2019-05-20T08:22:09.831Z,25.74
2019-05-20T08:23:09.885Z,25.70
2019-05-20T08:24:09.889Z,25.80
2019-05-20T08:25:09.906Z,25.74
2019-05-20T08:26:09.934Z,25.76
2019-05-20T08:27:09.961Z,25.77
2019-05-20T08:28:09.997Z,25.80
2019-05-20T08:29:10.014Z,25.81
2019-05-20T08:30:13.879Z,25.86
2019-05-20T08:31:10.069Z,25.89
2019-05-20T08:32:10.099Z,25.85
2019-05-20T08:33:10.124Z,25.85
2019-05-20T08:34:10.154Z,25.85
2019-05-20T08:35:10.179Z,25.93
2019-05-20T08:36:10.223Z,25.81
2019-05-20T08:37:10.235Z,25.86
2019-05-20T08:38:10.262Z,25.88
2019-05-20T08:39:10.289Z,25.89
2019-05-20T08:40:10.319Z,25.92
2019-05-20T08:41:10.345Z,25.96
2019-05-20T08:42:10.374Z,25.93
2019-05-20T08:43:10.455Z,25.96
2019-05-20T08:44:10.427Z,25.92
2019-05-20T08:45:10.455Z,25.92
2019-05-20T08:46:10.483Z,25.95
2019-05-20T08:47:10.532Z,25.92
2019-05-20T08:48:10.537Z,25.92
2019-05-20T08:49:11.659Z,25.91
2019-05-20T08:50:15.634Z,25.89
2019-05-20T08:51:10.625Z,26.04
2019-05-20T08:52:10.649Z,25.89
2019-05-20T08:53:10.710Z,25.93
2019-05-20T08:54:10.706Z,26.01
2019-05-20T08:55:10.735Z,25.98
2019-05-20T08:56:10.759Z,25.98
2019-05-20T08:57:10.788Z,25.99
2019-05-20T08:58:10.821Z,26.01
2019-05-20T08:59:10.872Z,25.96
2019-05-20T09:00:10.872Z,26.07
2019-05-20T09:01:12.224Z,26.10
2019-05-20T09:02:10.982Z,25.98
2019-05-20T09:03:10.952Z,26.07
2019-05-20T09:04:11.044Z,26.06
2019-05-20T09:05:11.009Z,25.99
2019-05-20T09:06:11.063Z,26.08
2019-05-20T09:07:11.073Z,26.08
2019-05-20T09:08:11.093Z,26.15
2019-05-20T09:09:12.328Z,26.16
2019-05-20T09:10:11.148Z,26.04
2019-05-20T09:11:11.184Z,26.19
2019-05-20T09:12:11.238Z,26.19
2019-05-20T09:13:11.239Z,26.13
2019-05-20T09:14:11.314Z,26.18
2019-05-20T09:15:11.291Z,26.18
2019-05-20T09:16:11.395Z,26.15
2019-05-20T09:17:11.400Z,26.13
2019-05-20T09:18:11.374Z,26.15
2019-05-20T09:19:11.417Z,26.10
2019-05-20T09:20:11.476Z,26.08
2019-05-20T09:21:11.650Z,26.22
2019-05-20T09:22:11.491Z,26.16
2019-05-20T09:23:11.588Z,26.22
2019-05-20T09:24:11.546Z,26.13
2019-05-20T09:25:11.641Z,26.22
2019-05-20T09:26:11.594Z,26.11
2019-05-20T09:27:11.622Z,26.19
2019-05-20T09:28:11.648Z,26.23
2019-05-20T09:29:11.767Z,26.24
2019-05-20T09:30:11.706Z,26.19
2019-05-20T09:31:11.900Z,26.22
2019-05-20T09:32:11.761Z,26.19
2019-05-20T09:33:11.842Z,26.26
2019-05-20T09:34:11.877Z,26.29
2019-05-20T09:35:11.844Z,26.23
2019-05-20T09:36:11.872Z,26.27
2019-05-20T09:37:11.900Z,26.29
2019-05-20T09:38:20.194Z,26.30
2019-05-20T09:39:11.964Z,26.29
2019-05-20T09:40:11.991Z,26.27
2019-05-20T09:41:12.011Z,26.37
2019-05-20T09:42:12.040Z,26.39
2019-05-20T09:43:12.085Z,26.33
2019-05-20T09:44:12.099Z,26.31
2019-05-20T09:45:12.128Z,26.34
2019-05-20T09:46:12.154Z,26.34
2019-05-20T09:47:12.180Z,26.41
2019-05-20T09:48:12.207Z,26.39
2019-05-20T09:49:12.234Z,26.39
2019-05-20T09:50:12.263Z,26.39
2019-05-20T09:51:12.293Z,26.37
2019-05-20T09:52:12.353Z,26.36
2019-05-20T09:53:12.354Z,26.39
2019-05-20T09:54:12.385Z,26.42
2019-05-20T09:55:12.403Z,26.34
2019-05-20T09:56:12.431Z,26.30
2019-05-20T09:57:12.458Z,26.36
2019-05-20T09:58:12.488Z,26.30
2019-05-20T09:59:16.238Z,26.36
2019-05-20T10:00:12.542Z,26.34
2019-05-20T10:01:12.572Z,26.34
2019-05-20T10:02:12.600Z,26.34
2019-05-20T10:03:12.626Z,26.24
2019-05-20T10:04:12.658Z,26.26
2019-05-20T10:05:12.683Z,26.23
2019-05-20T10:06:12.712Z,26.18
2019-05-20T10:07:12.739Z,26.19
2019-05-20T10:08:12.767Z,26.29
2019-05-20T10:09:12.851Z,26.23
2019-05-20T10:10:12.826Z,26.22
2019-05-20T10:11:12.850Z,26.27
2019-05-20T10:12:12.887Z,26.16
2019-05-20T10:13:12.948Z,26.15
2019-05-20T10:14:12.935Z,26.19
2019-05-20T10:15:12.962Z,26.13
2019-05-20T10:16:12.993Z,26.08
2019-05-20T10:17:13.041Z,26.19
2019-05-20T10:18:13.060Z,26.10
2019-05-20T10:19:13.073Z,26.16
2019-05-20T10:20:13.103Z,26.19
2019-05-20T10:21:13.131Z,26.10
2019-05-20T10:22:13.171Z,26.08
2019-05-20T10:23:15.766Z,26.07
2019-05-20T10:24:13.291Z,26.06
2019-05-20T10:25:13.245Z,26.10
2019-05-20T10:26:13.337Z,25.96
2019-05-20T10:27:13.297Z,26.01
2019-05-20T10:28:13.329Z,26.03
2019-05-20T10:29:13.356Z,26.01
2019-05-20T10:30:13.381Z,25.99
2019-05-20T10:31:13.478Z,25.98
2019-05-20T10:32:13.461Z,25.98
2019-05-20T10:33:13.468Z,26.01
2019-05-20T10:34:13.496Z,25.91
2019-05-20T10:35:13.520Z,26.06
2019-05-20T10:36:13.595Z,25.92
2019-05-20T10:37:13.576Z,25.91
2019-05-20T10:38:13.615Z,25.95
2019-05-20T10:39:13.634Z,25.89
2019-05-20T10:40:13.666Z,25.91
2019-05-20T10:41:13.691Z,25.91
2019-05-20T10:42:13.717Z,25.95
2019-05-20T10:43:13.750Z,25.93
2019-05-20T10:44:13.774Z,25.88
2019-05-20T10:45:13.801Z,25.89
2019-05-20T10:46:13.879Z,25.96
2019-05-20T10:47:13.860Z,25.98
2019-05-20T10:48:13.888Z,25.89
2019-05-20T10:49:13.917Z,25.93
2019-05-20T10:50:13.974Z,25.92
2019-05-20T10:51:13.972Z,25.92
2019-05-20T10:52:14.007Z,25.91
2019-05-20T10:53:14.030Z,25.91
2019-05-20T10:54:14.062Z,25.88
2019-05-20T10:55:14.082Z,25.93
2019-05-20T10:56:14.374Z,25.93
2019-05-20T10:57:14.134Z,25.92
2019-05-20T10:58:14.199Z,25.86
2019-05-20T10:59:14.193Z,25.88
2019-05-20T11:00:14.224Z,25.89
2019-05-20T11:01:14.252Z,25.89
2019-05-20T11:02:14.303Z,25.96
2019-05-20T11:03:14.303Z,25.85
2019-05-20T11:04:14.330Z,25.88
2019-05-20T11:05:14.400Z,25.92
2019-05-20T11:06:14.391Z,25.88
2019-05-20T11:07:14.415Z,25.91
2019-05-20T11:08:14.441Z,25.85
2019-05-20T11:09:14.655Z,25.92
2019-05-20T11:10:14.498Z,25.91
2019-05-20T11:11:14.869Z,25.80
2019-05-20T11:12:14.554Z,25.89
2019-05-20T11:13:14.580Z,25.91
2019-05-20T11:14:14.609Z,25.91
2019-05-20T11:15:14.692Z,25.89
2019-05-20T11:16:14.665Z,25.93
2019-05-20T11:17:15.257Z,25.93
2019-05-20T11:18:14.726Z,25.88
2019-05-20T11:19:14.747Z,25.89
2019-05-20T11:20:14.788Z,25.89
2019-05-20T11:21:14.805Z,25.91
2019-05-20T11:22:14.832Z,25.85
2019-05-20T11:23:14.857Z,25.92
2019-05-20T11:24:14.887Z,25.86
2019-05-20T11:25:14.916Z,25.86
2019-05-20T11:26:14.957Z,25.86
2019-05-20T11:27:14.976Z,25.77
2019-05-20T11:28:15.003Z,25.85
2019-05-20T11:29:15.045Z,25.95
2019-05-20T11:30:15.060Z,25.83
2019-05-20T11:31:15.080Z,25.88
2019-05-20T11:32:15.110Z,25.95
2019-05-20T11:33:15.140Z,25.85
2019-05-20T11:34:15.165Z,25.86
2019-05-20T11:35:15.191Z,25.95
2019-05-20T11:36:15.220Z,25.85
2019-05-20T11:37:15.248Z,25.88
2019-05-20T11:38:15.282Z,25.81
2019-05-20T11:39:31.289Z,25.83
2019-05-20T11:40:15.637Z,25.89
2019-05-20T11:41:15.358Z,25.86
2019-05-20T11:42:15.438Z,25.88
2019-05-20T11:43:15.413Z,25.92
2019-05-20T11:44:15.443Z,25.91
2019-05-20T11:45:15.470Z,25.85
2019-05-20T11:46:15.546Z,25.96
2019-05-20T11:47:15.524Z,25.86
2019-05-20T11:48:15.556Z,25.93
2019-05-20T11:49:15.654Z,25.88
2019-05-20T11:50:15.608Z,25.92
2019-05-20T11:51:15.637Z,25.88
2019-05-20T11:52:15.667Z,25.95
2019-05-20T11:53:15.694Z,25.83
2019-05-20T11:54:15.721Z,25.85
2019-05-20T11:55:15.747Z,25.95
2019-05-20T11:56:15.842Z,25.92
2019-05-20T11:57:15.802Z,25.88
2019-05-20T11:58:16.591Z,25.80
2019-05-20T11:59:15.873Z,25.81
2019-05-20T12:00:15.887Z,25.81
2019-05-20T12:01:15.914Z,25.80
2019-05-20T12:02:15.995Z,25.89
2019-05-20T12:03:15.968Z,25.89
2019-05-20T12:04:16.006Z,25.80
2019-05-20T12:05:16.031Z,25.80
2019-05-20T12:06:16.052Z,25.80
2019-05-20T12:07:16.083Z,25.85
2019-05-20T12:08:16.107Z,25.86
2019-05-20T12:09:16.135Z,25.78
2019-05-20T12:10:16.164Z,25.81
2019-05-20T12:11:16.212Z,25.86
2019-05-20T12:12:16.288Z,25.88
2019-05-20T12:13:16.254Z,25.88
2019-05-20T12:14:16.274Z,25.93
2019-05-20T12:15:16.302Z,25.85
2019-05-20T12:16:16.329Z,25.85
2019-05-20T12:17:16.356Z,25.88
2019-05-20T12:18:16.384Z,25.80
2019-05-20T12:19:16.411Z,25.85
2019-05-20T12:20:16.440Z,25.92
2019-05-20T12:21:16.465Z,25.81
2019-05-20T12:22:16.497Z,25.93
2019-05-20T12:23:16.523Z,25.86
2019-05-20T12:24:16.551Z,25.92
2019-05-20T12:25:16.579Z,25.92
2019-05-20T12:26:16.606Z,25.89
2019-05-20T12:27:16.632Z,25.91
2019-05-20T12:28:16.664Z,25.92
2019-05-20T12:29:16.695Z,25.89
2019-05-20T12:30:16.725Z,25.95
2019-05-20T12:31:16.742Z,25.93
2019-05-20T12:32:16.772Z,25.85
2019-05-20T12:33:18.897Z,25.81
2019-05-20T12:34:16.830Z,25.91
2019-05-20T12:35:16.853Z,25.88
2019-05-20T12:36:16.886Z,25.93
2019-05-20T12:37:16.911Z,25.92
2019-05-20T12:38:16.939Z,25.83
2019-05-20T12:39:16.973Z,25.92
2019-05-20T12:40:16.994Z,25.93
2019-05-20T12:41:17.080Z,25.89
2019-05-20T12:42:17.048Z,25.86
2019-05-20T12:43:17.081Z,25.83
2019-05-20T12:44:17.108Z,25.91
2019-05-20T12:45:17.162Z,25.83
2019-05-20T12:46:17.159Z,25.85
2019-05-20T12:47:17.185Z,25.92
2019-05-20T12:48:17.214Z,25.88
2019-05-20T12:49:17.364Z,25.88
2019-05-20T12:50:17.276Z,25.83
2019-05-20T12:51:17.337Z,25.91
2019-05-20T12:52:17.389Z,25.89
2019-05-20T12:53:17.361Z,25.88
2019-05-20T12:54:17.420Z,25.88
2019-05-20T12:55:17.439Z,25.95
2019-05-20T12:56:19.671Z,25.85
2019-05-20T12:57:17.509Z,25.91
2019-05-20T12:58:17.493Z,25.88
2019-05-20T12:59:17.520Z,25.86
2019-05-20T13:00:17.573Z,25.83
2019-05-20T13:01:17.575Z,25.86
2019-05-20T13:02:17.764Z,25.86
2019-05-20T13:03:17.659Z,25.89
2019-05-20T13:04:17.660Z,25.88
2019-05-20T13:05:17.689Z,25.96
2019-05-20T13:06:17.745Z,25.95
2019-05-20T13:07:17.745Z,25.88
2019-05-20T13:08:17.770Z,25.93
2019-05-20T13:09:17.799Z,25.83
2019-05-20T13:10:28.848Z,25.92
2019-05-20T13:11:17.880Z,25.91
2019-05-20T13:12:17.881Z,25.89
2019-05-20T13:13:17.936Z,25.93
2019-05-20T13:14:17.938Z,25.92
2019-05-20T13:15:18.038Z,25.92
2019-05-20T13:16:18.039Z,25.93
2019-05-20T13:17:18.019Z,25.92
2019-05-20T13:18:18.047Z,25.96
2019-05-20T13:19:18.074Z,25.93
2019-05-20T13:20:18.108Z,25.92
2019-05-20T13:21:18.129Z,25.91
2019-05-20T13:22:18.162Z,25.88
2019-05-20T13:23:18.185Z,25.93
2019-05-20T13:24:18.302Z,25.92
2019-05-20T13:25:18.241Z,25.96
2019-05-20T13:26:18.341Z,25.91
2019-05-20T13:27:18.297Z,25.93
2019-05-20T13:28:18.325Z,25.85
2019-05-20T13:29:18.351Z,25.89
2019-05-20T13:30:18.380Z,25.93
2019-05-20T13:31:18.406Z,25.88
2019-05-20T13:32:18.436Z,25.92
2019-05-20T13:33:18.463Z,25.89
2019-05-20T13:34:18.838Z,26.03
2019-05-20T13:35:18.525Z,25.91
2019-05-20T13:36:18.545Z,25.91
2019-05-20T13:37:18.581Z,25.88
2019-05-20T13:38:18.601Z,25.92
2019-05-20T13:39:18.648Z,25.93
2019-05-20T13:40:18.658Z,26.01
2019-05-20T13:41:18.685Z,25.91
2019-05-20T13:42:18.717Z,25.92
2019-05-20T13:43:18.740Z,25.91
2019-05-20T13:44:18.769Z,25.92
2019-05-20T13:45:18.895Z,25.92
2019-05-20T13:46:18.823Z,26.01
2019-05-20T13:47:18.905Z,25.86
2019-05-20T13:48:18.881Z,25.95
2019-05-20T13:49:18.907Z,25.86
2019-05-20T13:50:18.938Z,26.04
2019-05-20T13:51:18.962Z,25.88
2019-05-20T13:52:18.990Z,25.89
2019-05-20T13:53:19.019Z,25.91
2019-05-20T13:54:19.046Z,26.03
2019-05-20T13:55:19.072Z,26.03
2019-05-20T13:56:19.108Z,25.98
2019-05-20T13:57:19.133Z,25.98
2019-05-20T13:58:19.192Z,25.98
2019-05-20T13:59:19.183Z,25.98
2019-05-20T14:00:19.211Z,25.95
2019-05-20T14:01:19.290Z,26.03
2019-05-20T14:02:19.269Z,25.93
2019-05-20T14:03:19.296Z,25.96
2019-05-20T14:04:19.323Z,25.99
2019-05-20T14:05:19.351Z,26.03
2019-05-20T14:06:19.377Z,25.96
2019-05-20T14:07:19.405Z,26.01
2019-05-20T14:08:19.432Z,26.03
2019-05-20T14:09:19.465Z,25.99
2019-05-20T14:10:19.491Z,25.93
2019-05-20T14:11:33.801Z,25.99
2019-05-20T14:12:19.544Z,26.01
2019-05-20T14:13:19.574Z,26.01
2019-05-20T14:14:19.601Z,25.99
2019-05-20T14:15:19.626Z,25.99
2019-05-20T14:16:19.705Z,26.04
2019-05-20T14:17:19.683Z,25.93
2019-05-20T14:18:19.711Z,26.04
2019-05-20T14:19:22.525Z,25.98
2019-05-20T14:20:19.768Z,25.98
2019-05-20T14:21:19.798Z,26.01
2019-05-20T14:22:19.823Z,25.98
2019-05-20T14:23:19.852Z,26.01
2019-05-20T14:24:19.877Z,26.06
2019-05-20T14:25:19.904Z,25.96
2019-05-20T14:26:19.951Z,25.99
2019-05-20T14:27:19.966Z,26.04
2019-05-20T14:28:19.991Z,26.04
2019-05-20T14:29:20.019Z,25.98
2019-05-20T14:30:20.045Z,25.99
2019-05-20T14:31:20.073Z,26.01
2019-05-20T14:32:20.101Z,26.01
2019-05-20T14:33:20.134Z,25.98
2019-05-20T14:34:20.155Z,25.98
2019-05-20T14:35:20.189Z,26.01
2019-05-20T14:36:38.624Z,26.06
2019-05-20T14:37:20.240Z,25.93
2019-05-20T14:38:20.268Z,25.95
2019-05-20T14:39:20.297Z,25.98
2019-05-20T14:40:20.324Z,26.04
2019-05-20T14:41:22.088Z,25.99
2019-05-20T14:42:20.380Z,26.04
2019-05-20T14:43:20.406Z,25.99
2019-05-20T14:44:20.435Z,25.99
2019-05-20T14:45:20.465Z,25.96
2019-05-20T14:46:20.488Z,26.04
2019-05-20T14:47:20.589Z,26.01
2019-05-20T14:48:20.544Z,26.01
2019-05-20T14:49:20.573Z,26.04
2019-05-20T14:50:20.658Z,26.03
2019-05-20T14:51:20.643Z,26.03
2019-05-20T14:52:20.657Z,26.01
2019-05-20T14:53:20.728Z,25.98
2019-05-20T14:54:20.714Z,26.04
2019-05-20T14:55:20.780Z,26.07
2019-05-20T14:56:20.768Z,25.99
2019-05-20T14:57:20.871Z,26.01
2019-05-20T14:58:20.908Z,25.98
2019-05-20T14:59:20.848Z,26.06
2019-05-20T15:00:20.949Z,26.03
2019-05-20T15:01:20.905Z,26.04
2019-05-20T15:02:20.935Z,26.03
2019-05-20T15:03:21.036Z,26.04
2019-05-20T15:04:20.999Z,26.01
2019-05-20T15:05:21.016Z,26.03
2019-05-20T15:06:21.044Z,26.06
2019-05-20T15:07:30.185Z,26.04
2019-05-20T15:08:21.184Z,26.03
2019-05-20T15:09:21.130Z,26.04
2019-05-20T15:10:21.156Z,25.96
2019-05-20T15:11:36.803Z,25.99
2019-05-20T15:12:21.210Z,26.11
2019-05-20T15:13:21.240Z,26.01
2019-05-20T15:14:21.271Z,25.96
2019-05-20T15:15:21.296Z,25.99
2019-05-20T15:16:21.670Z,26.03
2019-05-20T15:17:21.362Z,25.96
2019-05-20T15:18:21.377Z,26.03
2019-05-20T15:19:21.405Z,26.01
2019-05-20T15:20:21.500Z,26.10
2019-05-20T15:21:21.556Z,26.04
2019-05-20T15:22:21.493Z,26.11
2019-05-20T15:23:21.515Z,25.98
2019-05-20T15:24:21.546Z,25.99
2019-05-20T15:25:21.573Z,26.04
2019-05-20T15:26:21.602Z,26.04
2019-05-20T15:27:21.627Z,25.98
2019-05-20T15:28:21.655Z,26.04
2019-05-20T15:29:27.944Z,26.08
2019-05-20T15:30:21.757Z,25.96
2019-05-20T15:31:21.739Z,26.01
2019-05-20T15:32:21.768Z,26.03
2019-05-20T15:33:21.801Z,25.96
2019-05-20T15:34:21.869Z,26.04
2019-05-20T15:35:21.849Z,26.01
2019-05-20T15:36:21.877Z,26.03
2019-05-20T15:37:21.919Z,26.04
2019-05-20T15:38:21.935Z,25.98
2019-05-20T15:39:21.971Z,25.99
2019-05-20T15:40:24.437Z,26.01
2019-05-20T15:41:22.019Z,26.01
2019-05-20T15:42:22.045Z,25.93
2019-05-20T15:43:22.070Z,26.06
2019-05-20T15:44:22.100Z,26.04
2019-05-20T15:45:22.130Z,26.08
2019-05-20T15:46:22.157Z,26.04
2019-05-20T15:47:22.184Z,26.06
2019-05-20T15:48:22.211Z,26.10
2019-05-20T15:49:22.295Z,26.01
2019-05-20T15:50:22.267Z,26.07
2019-05-20T15:51:22.340Z,26.04
2019-05-20T15:52:22.321Z,26.04
2019-05-20T15:53:22.349Z,26.04
2019-05-20T15:54:22.517Z,25.98
2019-05-20T15:55:22.407Z,26.10
2019-05-20T15:56:22.431Z,26.07
2019-05-20T15:57:22.461Z,26.03
2019-05-20T15:58:23.854Z,26.13
2019-05-20T15:59:22.517Z,25.98
2019-05-20T16:00:22.545Z,25.98
2019-05-20T16:01:22.613Z,25.96
2019-05-20T16:02:22.600Z,25.99
2019-05-20T16:03:22.625Z,26.06
2019-05-20T16:04:22.655Z,26.08
2019-05-20T16:05:22.682Z,25.98
2019-05-20T16:06:22.711Z,25.98
2019-05-20T16:07:22.738Z,25.98
2019-05-20T16:08:22.764Z,26.03
2019-05-20T16:09:22.793Z,25.99
2019-05-20T16:10:22.828Z,26.03
2019-05-20T16:11:22.897Z,26.07
2019-05-20T16:12:22.880Z,26.03
2019-05-20T16:13:22.904Z,26.07
2019-05-20T16:14:22.934Z,25.95
2019-05-20T16:15:22.959Z,25.98
2019-05-20T16:16:23.055Z,25.98
2019-05-20T16:17:23.083Z,26.01
2019-05-20T16:18:23.044Z,25.93
2019-05-20T16:19:23.073Z,25.95
2019-05-20T16:20:23.100Z,25.95
2019-05-20T16:21:23.127Z,26.01
2019-05-20T16:22:23.155Z,25.92
2019-05-20T16:23:23.182Z,25.96
2019-05-20T16:24:23.210Z,25.93
2019-05-20T16:25:23.294Z,25.92
2019-05-20T16:26:23.270Z,25.95
2019-05-20T16:27:23.293Z,25.98
2019-05-20T16:28:23.327Z,25.92
2019-05-20T16:29:23.350Z,25.96
2019-05-20T16:30:23.382Z,26.04
2019-05-20T16:31:23.402Z,26.03
2019-05-20T16:32:23.433Z,25.88
2019-05-20T16:33:23.509Z,26.03
2019-05-20T16:34:23.491Z,26.03
2019-05-20T16:35:23.517Z,25.96
2019-05-20T16:36:23.562Z,26.01
2019-05-20T16:37:23.572Z,25.99
2019-05-20T16:38:23.600Z,26.03
2019-05-20T16:39:23.625Z,25.93
2019-05-20T16:40:23.655Z,25.98
2019-05-20T16:41:23.681Z,25.96
2019-05-20T16:42:23.719Z,25.93
2019-05-20T16:43:23.735Z,25.96
2019-05-20T16:44:23.765Z,26.04
2019-05-20T16:45:23.797Z,25.99
2019-05-20T16:46:23.822Z,25.98
2019-05-20T16:47:23.849Z,25.96
2019-05-20T16:48:23.876Z,26.01
2019-05-20T16:49:23.903Z,25.93
2019-05-20T16:50:24.003Z,25.99
2019-05-20T16:51:23.958Z,26.03
2019-05-20T16:52:23.988Z,26.01
2019-05-20T16:53:24.016Z,25.91
2019-05-20T16:54:24.067Z,26.01
2019-05-20T16:55:24.071Z,26.06
2019-05-20T16:56:24.098Z,25.96
2019-05-20T16:57:24.151Z,25.92
2019-05-20T16:58:24.233Z,25.93
2019-05-20T16:59:24.181Z,25.88
2019-05-20T17:00:31.409Z,25.92
2019-05-20T17:01:24.236Z,25.92
2019-05-20T17:02:24.266Z,25.85
2019-05-20T17:03:24.317Z,25.89
2019-05-20T17:04:24.325Z,25.93
2019-05-20T17:05:24.347Z,25.99
2019-05-20T17:06:27.480Z,25.89
2019-05-20T17:07:24.401Z,25.96
2019-05-20T17:08:24.434Z,25.95
2019-05-20T17:09:24.460Z,25.92
2019-05-20T17:10:24.487Z,25.93
2019-05-20T17:11:24.513Z,26.03
2019-05-20T17:12:24.541Z,25.91
2019-05-20T17:13:24.569Z,25.88
2019-05-20T17:14:24.598Z,25.91
2019-05-20T17:15:24.628Z,25.91
2019-05-20T17:16:24.651Z,25.99
2019-05-20T17:17:24.682Z,25.88
2019-05-20T17:18:24.708Z,25.91
2019-05-20T17:19:24.789Z,25.88
2019-05-20T17:20:24.763Z,25.91
2019-05-20T17:21:24.850Z,25.95
2019-05-20T17:22:24.818Z,25.92
2019-05-20T17:23:24.845Z,25.88
2019-05-20T17:24:24.874Z,25.86
2019-05-20T17:25:24.910Z,25.92
2019-05-20T17:26:24.930Z,25.85
2019-05-20T17:27:24.959Z,25.93
2019-05-20T17:28:25.008Z,25.86
2019-05-20T17:29:25.092Z,25.95
2019-05-20T17:30:25.042Z,25.91
2019-05-20T17:31:26.709Z,25.95
2019-05-20T17:32:25.096Z,25.98
2019-05-20T17:33:25.133Z,25.81
2019-05-20T17:34:25.189Z,25.96
2019-05-20T17:35:25.178Z,25.92
2019-05-20T17:36:25.214Z,25.89
2019-05-20T17:37:25.242Z,25.95
2019-05-20T17:38:25.261Z,25.95
2019-05-20T17:39:25.328Z,25.86
2019-05-20T17:40:25.321Z,25.88
2019-05-20T17:41:25.360Z,25.83
2019-05-20T17:42:25.373Z,25.83
2019-05-20T17:43:25.401Z,25.93
2019-05-20T17:44:25.431Z,25.86
2019-05-20T17:45:25.460Z,25.91
2019-05-20T17:46:25.537Z,25.92
2019-05-20T17:47:25.512Z,25.88
2019-05-20T17:48:25.550Z,25.83
2019-05-20T17:49:25.578Z,25.91
2019-05-20T17:50:25.594Z,25.86
2019-05-20T17:51:25.622Z,25.92
2019-05-20T17:52:25.653Z,25.81
2019-05-20T17:53:25.678Z,25.88
2019-05-20T17:54:25.706Z,25.86
2019-05-20T17:55:25.907Z,25.85
2019-05-20T17:56:25.777Z,25.88
2019-05-20T17:57:25.814Z,25.91
2019-05-20T17:58:25.818Z,25.95
2019-05-20T17:59:25.844Z,25.92
2019-05-20T18:00:25.872Z,25.92
2019-05-20T18:01:25.907Z,25.88
2019-05-20T18:02:25.926Z,25.93
2019-05-20T18:03:25.954Z,25.88
2019-05-20T18:04:25.983Z,25.93
2019-05-20T18:05:26.014Z,25.85
2019-05-20T18:06:26.040Z,25.86
2019-05-20T18:07:26.067Z,25.85
2019-05-20T18:08:26.151Z,25.71
2019-05-20T18:09:26.120Z,25.89
2019-05-20T18:10:26.147Z,25.78
2019-05-20T18:11:26.177Z,25.86
2019-05-20T18:12:26.204Z,25.76
2019-05-20T18:13:26.234Z,25.77
2019-05-20T18:14:26.260Z,25.80
2019-05-20T18:15:26.288Z,25.74
2019-05-20T18:16:26.312Z,25.77
2019-05-20T18:17:26.342Z,25.80
2019-05-20T18:18:26.371Z,25.78
2019-05-20T18:19:26.398Z,25.81
2019-05-20T18:20:26.473Z,25.80
2019-05-20T18:21:26.453Z,25.80
2019-05-20T18:22:26.482Z,25.77
2019-05-20T18:23:26.572Z,25.78
2019-05-20T18:24:26.535Z,25.85
2019-05-20T18:25:26.563Z,25.80
2019-05-20T18:26:26.591Z,25.81
2019-05-20T18:27:26.619Z,25.80
2019-05-20T18:28:26.646Z,25.78
2019-05-20T18:29:26.718Z,25.81
2019-05-20T18:30:26.710Z,25.78
2019-05-20T18:31:32.294Z,25.88
2019-05-20T18:32:26.758Z,25.88
2019-05-20T18:33:26.784Z,25.86
2019-05-20T18:34:26.813Z,25.83
2019-05-20T18:35:26.839Z,25.76
2019-05-20T18:36:26.867Z,25.80
2019-05-20T18:37:26.899Z,25.80
2019-05-20T18:38:26.930Z,25.78
2019-05-20T18:39:26.951Z,25.78
2019-05-20T18:40:26.980Z,25.77
2019-05-20T18:41:27.005Z,25.78
2019-05-20T18:42:27.033Z,25.74
2019-05-20T18:43:27.061Z,25.77
2019-05-20T18:44:27.155Z,25.78
2019-05-20T18:45:27.120Z,25.77
2019-05-20T18:46:27.146Z,25.71
2019-05-20T18:47:27.173Z,25.76
2019-05-20T18:48:27.269Z,25.71
2019-05-20T18:49:27.227Z,25.78
2019-05-20T18:50:27.253Z,25.77
2019-05-20T18:51:27.305Z,25.77
2019-05-20T18:52:27.308Z,25.76
2019-05-20T18:53:27.338Z,25.76
2019-05-20T18:54:27.367Z,25.74
2019-05-20T18:55:27.451Z,25.77
2019-05-20T18:56:27.420Z,25.78
2019-05-20T18:57:27.449Z,25.74
2019-05-20T18:58:27.474Z,25.76
2019-05-20T18:59:27.505Z,25.66
2019-05-20T19:00:27.532Z,25.73
2019-05-20T19:01:27.558Z,25.73
2019-05-20T19:02:27.585Z,25.67
2019-05-20T19:03:28.599Z,25.66
2019-05-20T19:04:27.641Z,25.68
2019-05-20T19:05:27.668Z,25.61
2019-05-20T19:06:27.700Z,25.62
2019-05-20T19:07:27.723Z,25.61
2019-05-20T19:08:27.751Z,25.58
2019-05-20T19:09:27.830Z,25.66
2019-05-20T19:10:27.807Z,25.62
2019-05-20T19:11:27.834Z,25.55
2019-05-20T19:12:27.868Z,25.68
2019-05-20T19:13:27.951Z,25.58
2019-05-20T19:14:27.916Z,25.66
2019-05-20T19:15:27.946Z,25.66
2019-05-20T19:16:27.973Z,25.61
2019-05-20T19:17:28.018Z,25.66
2019-05-20T19:18:28.030Z,25.67
2019-05-20T19:19:28.056Z,25.59
2019-05-20T19:20:28.082Z,25.66
2019-05-20T19:21:28.109Z,25.56
2019-05-20T19:22:28.137Z,25.62
2019-05-20T19:23:28.164Z,25.63
2019-05-20T19:24:28.192Z,25.67
2019-05-20T19:25:37.284Z,25.54
2019-05-20T19:26:28.249Z,25.63
2019-05-20T19:27:28.274Z,25.55
2019-05-20T19:28:28.363Z,25.58
2019-05-20T19:29:28.332Z,25.62
2019-05-20T19:30:28.369Z,25.63
2019-05-20T19:31:28.385Z,25.54
2019-05-20T19:32:28.414Z,25.63
2019-05-20T19:33:28.441Z,25.58
2019-05-20T19:34:28.469Z,25.58
2019-05-20T19:35:28.496Z,25.52
2019-05-20T19:36:28.524Z,25.52
2019-05-20T19:37:28.550Z,25.55
2019-05-20T19:38:32.845Z,25.52
2019-05-20T19:39:28.605Z,25.54
2019-05-20T19:40:28.633Z,25.52
2019-05-20T19:41:28.676Z,25.58
2019-05-20T19:42:28.699Z,25.51
2019-05-20T19:43:28.716Z,25.56
2019-05-20T19:44:28.744Z,25.55
2019-05-20T19:45:28.772Z,25.48
2019-05-20T19:46:28.841Z,25.54
2019-05-20T19:47:28.827Z,25.52
2019-05-20T19:48:28.855Z,25.51
2019-05-20T19:49:28.885Z,25.55
2019-05-20T19:50:28.909Z,25.48
2019-05-20T19:51:28.936Z,25.51
2019-05-20T19:52:28.966Z,25.48
2019-05-20T19:53:28.995Z,25.49
2019-05-20T19:54:29.020Z,25.46
2019-05-20T19:55:29.045Z,25.48
2019-05-20T19:56:29.075Z,25.48
2019-05-20T19:57:29.102Z,25.48
2019-05-20T19:58:29.199Z,25.40
2019-05-20T19:59:29.164Z,25.44
2019-05-20T20:00:29.195Z,25.40
2019-05-20T20:01:29.212Z,25.43
2019-05-20T20:02:29.240Z,25.41
2019-05-20T20:03:29.270Z,25.44
2019-05-20T20:04:29.338Z,25.41
2019-05-20T20:05:29.322Z,25.46
2019-05-20T20:06:29.351Z,25.48
2019-05-20T20:07:29.378Z,25.48
2019-05-20T20:08:29.404Z,25.48
2019-05-20T20:09:29.432Z,25.43
2019-05-20T20:10:29.459Z,25.43
2019-05-20T20:11:29.486Z,25.49
2019-05-20T20:12:29.591Z,25.41
2019-05-20T20:13:29.541Z,25.51
2019-05-20T20:14:29.569Z,25.44
2019-05-20T20:15:29.608Z,25.44
2019-05-20T20:16:29.622Z,25.43